Time;durP1;ratioP1;P1;durP2;ratioP2;P2;SDS_P1;SDS_P2;PMS_P1;PMS_P2;Temp;Humidity;BMP_temperature;BMP_pressure;BME280_temperature;BME280_humidity;BME280_pressure;Samples;Min_cycle;Max_cycle;Signal;HPM_P1;HPM_P2
2024/02/06 00:00:04;;;;;;;11.95;3.92;;;;;;;;;;5061542;28;20063;-35
2024/02/06 00:02:31;;;;;;;11.73;3.72;;;;;;;;;;5068797;28;20028;-35
2024/02/06 00:04:58;;;;;;;10.65;3.70;;;;;;;;;;5053821;28;20052;-35
2024/02/06 00:07:24;;;;;;;11.95;3.97;;;;;;;;;;5070975;28;20420;-35
2024/02/06 00:09:51;;;;;;;10.98;4.30;;;;;;;;;;5065424;28;20029;-35
2024/02/06 00:12:18;;;;;;;12.65;3.80;;;;;;;;;;5051845;28;20025;-35
2024/02/06 00:14:45;;;;;;;11.02;3.33;;;;;;;;;;5051547;28;20037;-35
2024/02/06 00:17:12;;;;;;;11.90;3.67;;;;;;;;;;5054042;28;20122;-35
2024/02/06 00:19:39;;;;;;;13.40;4.22;;;;;;;;;;5054293;28;20060;-36
2024/02/06 00:22:06;;;;;;;12.75;3.50;;;;;;;;;;5054979;28;20393;-38
2024/02/06 00:24:34;;;;;;;18.80;4.57;;;;;;;;;;5069385;28;20365;-36
2024/02/06 00:27:01;;;;;;;18.10;4.32;;;;;;;;;;5067527;28;20037;-37
2024/02/06 00:29:29;;;;;;;19.80;4.70;;;;;;;;;;5062650;28;20028;-36
2024/02/06 00:31:56;;;;;;;19.02;4.85;;;;;;;;;;5051293;28;20029;-35
2024/02/06 00:34:23;;;;;;;23.42;5.00;;;;;;;;;;5054178;28;20029;-36
2024/02/06 00:36:50;;;;;;;30.08;5.43;;;;;;;;;;5060876;28;20390;-37
2024/02/06 00:39:17;;;;;;;24.83;5.10;;;;;;;;;;5065080;28;20112;-37
2024/02/06 00:41:44;;;;;;;25.60;5.13;;;;;;;;;;5055831;28;20020;-35
2024/02/06 00:44:11;;;;;;;21.50;4.80;;;;;;;;;;5053240;28;20049;-37
2024/02/06 00:46:38;;;;;;;19.50;4.80;;;;;;;;;;5059257;28;20040;-37
2024/02/06 00:49:05;;;;;;;17.67;4.63;;;;;;;;;;5059524;28;20035;-35
2024/02/06 00:51:32;;;;;;;20.85;5.35;;;;;;;;;;5050478;28;20029;-37
2024/02/06 00:53:59;;;;;;;29.20;5.15;;;;;;;;;;5059771;28;20032;-37
2024/02/06 00:56:27;;;;;;;23.42;5.30;;;;;;;;;;5051206;28;20494;-36
2024/02/06 00:58:54;;;;;;;29.38;5.63;;;;;;;;;;5062057;28;20071;-35
2024/02/06 01:01:21;;;;;;;23.83;5.53;;;;;;;;;;5056527;28;20025;-37
2024/02/06 01:03:50;;;;;;;23.52;5.15;;;;;;;;;;5050530;28;20064;-36
2024/02/06 01:06:18;;;;;;;24.38;5.30;;;;;;;;;;5050930;28;20090;-36
2024/02/06 01:08:45;;;;;;;18.67;5.10;;;;;;;;;;5050478;28;20040;-36
2024/02/06 01:11:12;;;;;;;20.60;4.70;;;;;;;;;;5050712;28;20028;-35
2024/02/06 01:13:39;;;;;;;23.48;4.93;;;;;;;;;;5069844;28;20426;-39
2024/02/06 01:16:07;;;;;;;27.02;5.28;;;;;;;;;;5057672;28;20518;-38
2024/02/06 01:18:34;;;;;;;23.05;5.07;;;;;;;;;;5052517;28;20126;-37
2024/02/06 01:21:01;;;;;;;19.60;4.65;;;;;;;;;;5059271;28;20021;-36
2024/02/06 01:23:28;;;;;;;20.25;4.97;;;;;;;;;;5059258;28;20047;-36
2024/02/06 01:25:55;;;;;;;27.40;5.50;;;;;;;;;;5055758;28;20033;-37
2024/02/06 01:28:22;;;;;;;27.33;5.72;;;;;;;;;;5054804;28;20021;-37
2024/02/06 01:30:49;;;;;;;25.55;5.82;;;;;;;;;;5045497;28;20471;-37
2024/02/06 01:33:16;;;;;;;22.58;5.53;;;;;;;;;;5053895;28;20024;-37
2024/02/06 01:35:43;;;;;;;25.45;5.43;;;;;;;;;;5054317;28;20505;-36
2024/02/06 01:38:12;;;;;;;25.80;5.07;;;;;;;;;;5059760;28;20109;-37
2024/02/06 01:40:43;;;;;;;20.73;5.65;;;;;;;;;;5065611;28;20399;-37
2024/02/06 01:43:11;;;;;;;22.30;4.63;;;;;;;;;;5053731;28;20530;-38
2024/02/06 01:45:38;;;;;;;19.13;5.18;;;;;;;;;;5053778;28;20120;-40
2024/02/06 01:48:06;;;;;;;15.68;4.57;;;;;;;;;;5053149;28;20021;-38
2024/02/06 01:50:33;;;;;;;19.67;5.28;;;;;;;;;;5054507;28;20067;-39
2024/02/06 01:53:01;;;;;;;14.82;4.50;;;;;;;;;;5066690;28;20031;-37
2024/02/06 01:55:28;;;;;;;23.25;5.47;;;;;;;;;;5053160;28;20086;-37
2024/02/06 01:57:56;;;;;;;27.17;4.88;;;;;;;;;;5053119;28;20095;-38
2024/02/06 02:00:24;;;;;;;21.48;5.00;;;;;;;;;;5055799;28;20029;-36
2024/02/06 02:02:52;;;;;;;21.80;5.53;;;;;;;;;;5061920;28;20037;-37
2024/02/06 02:05:19;;;;;;;18.52;5.22;;;;;;;;;;5053063;28;20426;-37
2024/02/06 02:07:46;;;;;;;20.02;4.38;;;;;;;;;;5055788;28;20032;-38
2024/02/06 02:10:13;;;;;;;18.70;4.63;;;;;;;;;;5053563;28;20032;-38
2024/02/06 02:12:41;;;;;;;22.10;4.50;;;;;;;;;;5066543;28;20028;-37
2024/02/06 02:15:08;;;;;;;21.83;4.97;;;;;;;;;;5066583;28;20107;-37
2024/02/06 02:17:35;;;;;;;19.92;4.35;;;;;;;;;;5054487;28;20032;-39
2024/02/06 02:20:02;;;;;;;20.80;4.72;;;;;;;;;;5057503;28;20445;-37
2024/02/06 02:22:29;;;;;;;20.48;4.80;;;;;;;;;;5059588;28;20041;-37
2024/02/06 02:24:56;;;;;;;20.52;5.28;;;;;;;;;;5065035;28;20025;-36
2024/02/06 02:27:24;;;;;;;21.40;5.03;;;;;;;;;;5065901;28;20025;-36
2024/02/06 02:29:52;;;;;;;20.75;4.88;;;;;;;;;;5052411;28;20040;-38
2024/02/06 02:32:19;;;;;;;15.68;4.70;;;;;;;;;;5059545;28;20029;-37
2024/02/06 02:34:49;;;;;;;26.10;4.88;;;;;;;;;;5067841;28;20474;-37
2024/02/06 02:37:16;;;;;;;24.58;5.32;;;;;;;;;;5062940;28;20069;-37
2024/02/06 02:39:43;;;;;;;22.95;4.72;;;;;;;;;;5053000;28;20040;-38
2024/02/06 02:42:10;;;;;;;14.30;4.65;;;;;;;;;;5060037;28;20032;-38
2024/02/06 02:44:37;;;;;;;18.27;4.75;;;;;;;;;;5054670;28;20040;-37
2024/02/06 02:47:04;;;;;;;21.83;4.50;;;;;;;;;;5059422;28;20537;-37
2024/02/06 02:49:31;;;;;;;24.98;4.60;;;;;;;;;;5059542;28;20037;-37
2024/02/06 02:51:58;;;;;;;17.33;4.65;;;;;;;;;;5073029;28;20539;-37
2024/02/06 02:54:28;;;;;;;16.92;4.55;;;;;;;;;;5063475;28;20379;-37
2024/02/06 02:56:56;;;;;;;19.60;4.65;;;;;;;;;;5058746;28;20087;-36
2024/02/06 02:59:23;;;;;;;22.10;4.72;;;;;;;;;;5072400;28;20039;-38
2024/02/06 03:01:50;;;;;;;14.93;4.65;;;;;;;;;;5060095;28;20483;-40
2024/02/06 03:04:17;;;;;;;17.27;4.55;;;;;;;;;;5042966;28;20040;-40
2024/02/06 03:06:44;;;;;;;19.98;4.53;;;;;;;;;;5052365;28;20037;-39
2024/02/06 03:09:13;;;;;;;17.52;4.32;;;;;;;;;;5052397;28;20029;-40
2024/02/06 03:11:40;;;;;;;18.63;5.05;;;;;;;;;;5034124;28;20549;-41
2024/02/06 03:14:07;;;;;;;18.10;4.88;;;;;;;;;;5051889;28;20395;-37
2024/02/06 03:16:34;;;;;;;20.23;4.57;;;;;;;;;;5052431;28;20033;-38
2024/02/06 03:19:01;;;;;;;19.63;4.47;;;;;;;;;;5065477;28;20029;-37
2024/02/06 03:21:28;;;;;;;18.00;5.00;;;;;;;;;;5043301;28;20029;-37
2024/02/06 03:23:55;;;;;;;17.90;4.78;;;;;;;;;;5051977;28;20083;-36
2024/02/06 03:26:22;;;;;;;21.55;4.90;;;;;;;;;;5051993;28;20033;-39
2024/02/06 03:28:49;;;;;;;21.70;4.53;;;;;;;;;;5051645;28;20044;-41
2024/02/06 03:31:16;;;;;;;17.98;5.07;;;;;;;;;;5056499;28;20399;-38
2024/02/06 03:33:43;;;;;;;18.67;4.15;;;;;;;;;;5059666;28;20033;-36
2024/02/06 03:36:10;;;;;;;21.27;4.68;;;;;;;;;;5051672;28;20032;-37
2024/02/06 03:38:37;;;;;;;21.45;4.90;;;;;;;;;;5051930;28;20036;-38
2024/02/06 03:41:04;;;;;;;21.55;5.00;;;;;;;;;;5051781;28;20040;-37
2024/02/06 03:43:31;;;;;;;19.48;4.68;;;;;;;;;;5063585;28;20045;-36
2024/02/06 03:45:58;;;;;;;18.58;4.65;;;;;;;;;;5051986;28;20028;-37
2024/02/06 03:48:25;;;;;;;12.90;4.50;;;;;;;;;;5051893;28;20509;-37
2024/02/06 03:50:52;;;;;;;14.07;4.38;;;;;;;;;;5051803;28;20134;-39
2024/02/06 03:53:19;;;;;;;20.27;5.15;;;;;;;;;;5051675;28;20024;-37
2024/02/06 03:55:46;;;;;;;21.25;4.93;;;;;;;;;;5051728;28;20025;-35
2024/02/06 03:58:13;;;;;;;23.35;5.00;;;;;;;;;;5051486;28;20025;-37
2024/02/06 04:00:41;;;;;;;21.52;5.20;;;;;;;;;;5053758;28;20094;-39
2024/02/06 04:03:08;;;;;;;18.00;4.32;;;;;;;;;;5054014;28;20037;-37
2024/02/06 04:05:35;;;;;;;17.00;4.22;;;;;;;;;;5052178;28;20115;-39
2024/02/06 04:08:03;;;;;;;13.55;4.55;;;;;;;;;;5069739;28;20032;-37
2024/02/06 04:10:30;;;;;;;23.25;4.35;;;;;;;;;;5057807;28;20033;-38
2024/02/06 04:12:56;;;;;;;18.25;4.40;;;;;;;;;;5058063;28;20040;-38
2024/02/06 04:15:23;;;;;;;14.38;4.70;;;;;;;;;;5057569;28;20123;-37
2024/02/06 04:17:50;;;;;;;16.08;4.45;;;;;;;;;;5051579;28;20024;-36
2024/02/06 04:20:17;;;;;;;17.05;4.30;;;;;;;;;;5051608;28;20053;-36
2024/02/06 04:22:45;;;;;;;17.73;4.47;;;;;;;;;;5051281;28;20033;-37
2024/02/06 04:25:12;;;;;;;21.17;4.40;;;;;;;;;;5051376;28;20033;-37
2024/02/06 04:27:39;;;;;;;16.85;4.30;;;;;;;;;;5051323;28;20060;-37
2024/02/06 04:30:06;;;;;;;15.45;4.75;;;;;;;;;;5051496;28;20025;-37
2024/02/06 04:32:33;;;;;;;17.42;4.03;;;;;;;;;;5051358;28;20090;-37
2024/02/06 04:35:01;;;;;;;21.60;4.88;;;;;;;;;;5051520;28;20029;-37
2024/02/06 04:37:27;;;;;;;15.07;3.90;;;;;;;;;;5051457;28;20391;-37
2024/02/06 04:39:54;;;;;;;19.65;4.28;;;;;;;;;;5051389;28;20021;-36
2024/02/06 04:42:21;;;;;;;20.60;4.50;;;;;;;;;;5051310;28;20108;-36
2024/02/06 04:44:48;;;;;;;20.45;4.75;;;;;;;;;;5051224;28;20033;-37
2024/02/06 04:47:16;;;;;;;23.80;4.82;;;;;;;;;;5051224;28;20403;-37
2024/02/06 04:49:43;;;;;;;12.07;4.68;;;;;;;;;;5051387;28;20395;-37
2024/02/06 04:52:10;;;;;;;22.63;5.20;;;;;;;;;;5051437;28;20483;-35
2024/02/06 04:54:37;;;;;;;14.15;4.28;;;;;;;;;;5055318;28;20037;-36
2024/02/06 04:57:04;;;;;;;13.20;4.53;;;;;;;;;;5055514;28;20032;-36
2024/02/06 04:59:32;;;;;;;14.10;4.53;;;;;;;;;;5055390;28;20044;-37
2024/02/06 05:01:59;;;;;;;19.63;4.97;;;;;;;;;;5069084;28;20482;-37
2024/02/06 05:04:26;;;;;;;17.73;4.90;;;;;;;;;;5075447;28;20036;-37
2024/02/06 05:06:53;;;;;;;19.80;4.65;;;;;;;;;;5075242;28;20043;-37
2024/02/06 05:09:20;;;;;;;22.75;5.07;;;;;;;;;;5075219;28;20021;-37
2024/02/06 05:11:47;;;;;;;19.90;5.03;;;;;;;;;;5075331;28;20050;-38
2024/02/06 05:14:13;;;;;;;17.05;4.10;;;;;;;;;;5075009;28;20041;-37
2024/02/06 05:16:40;;;;;;;13.70;4.00;;;;;;;;;;5075326;28;20429;-37
2024/02/06 05:19:13;;;;;;;17.63;4.88;;;;;;;;;;5075160;28;20039;-37
2024/02/06 05:21:42;;;;;;;17.42;4.65;;;;;;;;;;5075222;28;20042;-37
2024/02/06 05:24:09;;;;;;;15.48;4.25;;;;;;;;;;5074912;28;20491;-37
2024/02/06 05:26:36;;;;;;;15.75;4.43;;;;;;;;;;5074743;28;20090;-37
2024/02/06 05:29:03;;;;;;;16.08;4.40;;;;;;;;;;5074908;28;20143;-38
2024/02/06 05:31:30;;;;;;;15.05;4.25;;;;;;;;;;5074867;28;20546;-38
2024/02/06 05:33:57;;;;;;;19.33;5.05;;;;;;;;;;5074623;28;20046;-38
2024/02/06 05:36:24;;;;;;;20.48;4.70;;;;;;;;;;5074672;28;20040;-38
2024/02/06 05:38:51;;;;;;;17.13;4.65;;;;;;;;;;5074835;28;20048;-38
2024/02/06 05:41:18;;;;;;;19.33;4.53;;;;;;;;;;5074805;28;20017;-38
2024/02/06 05:43:45;;;;;;;13.63;4.60;;;;;;;;;;5074505;28;20062;-38
2024/02/06 05:46:12;;;;;;;12.88;3.97;;;;;;;;;;5074608;28;20032;-38
2024/02/06 05:48:39;;;;;;;19.40;4.30;;;;;;;;;;5074579;28;20017;-38
2024/02/06 05:51:06;;;;;;;16.67;4.32;;;;;;;;;;5074515;28;20442;-38
2024/02/06 05:53:36;;;;;;;12.95;4.60;;;;;;;;;;5074327;28;20115;-38
2024/02/06 05:56:09;;;;;;;14.90;4.72;;;;;;;;;;5074446;28;20036;-38
2024/02/06 05:58:38;;;;;;;19.27;4.88;;;;;;;;;;5056429;28;20040;-38
2024/02/06 06:01:05;;;;;;;15.25;4.22;;;;;;;;;;5070349;28;20044;-36
2024/02/06 06:03:32;;;;;;;19.05;4.53;;;;;;;;;;5074142;28;20431;-38
2024/02/06 06:05:59;;;;;;;19.13;4.97;;;;;;;;;;5074252;28;20390;-38
2024/02/06 06:08:26;;;;;;;23.60;4.60;;;;;;;;;;5074227;28;20032;-38
2024/02/06 06:10:53;;;;;;;19.85;4.75;;;;;;;;;;5074039;28;20085;-38
2024/02/06 06:13:20;;;;;;;15.63;4.05;;;;;;;;;;5073845;28;20155;-36
2024/02/06 06:15:47;;;;;;;15.05;3.88;;;;;;;;;;5074174;28;20036;-36
2024/02/06 06:18:14;;;;;;;23.48;4.53;;;;;;;;;;5074088;28;20039;-37
2024/02/06 06:20:41;;;;;;;15.70;4.88;;;;;;;;;;5073844;28;20025;-37
2024/02/06 06:23:08;;;;;;;20.90;5.05;;;;;;;;;;5073793;28;20037;-37
2024/02/06 06:25:35;;;;;;;18.05;4.40;;;;;;;;;;5073818;28;20036;-37
2024/02/06 06:28:04;;;;;;;13.38;3.80;;;;;;;;;;5073824;28;20103;-37
2024/02/06 06:30:31;;;;;;;14.68;4.32;;;;;;;;;;5073663;28;20062;-36
2024/02/06 06:32:58;;;;;;;16.17;4.28;;;;;;;;;;5073606;28;20036;-36
2024/02/06 06:35:24;;;;;;;16.85;4.55;;;;;;;;;;5073797;28;20021;-37
2024/02/06 06:37:51;;;;;;;14.90;4.53;;;;;;;;;;5073561;28;20513;-36
2024/02/06 06:40:18;;;;;;;16.95;4.10;;;;;;;;;;5073691;28;20115;-36
2024/02/06 06:42:45;;;;;;;17.35;4.38;;;;;;;;;;5073398;28;20081;-36
2024/02/06 06:45:12;;;;;;;20.58;4.25;;;;;;;;;;5073599;28;20108;-37
2024/02/06 06:47:39;;;;;;;12.48;3.90;;;;;;;;;;5073587;28;20020;-36
2024/02/06 06:50:07;;;;;;;16.10;4.47;;;;;;;;;;5073485;28;20052;-36
2024/02/06 06:52:34;;;;;;;13.77;4.60;;;;;;;;;;5055131;28;20029;-38
2024/02/06 06:55:01;;;;;;;11.43;4.43;;;;;;;;;;5073389;28;20078;-38
2024/02/06 06:57:28;;;;;;;15.38;5.00;;;;;;;;;;5073323;28;20025;-38
2024/02/06 06:59:55;;;;;;;15.77;4.85;;;;;;;;;;5073319;28;20031;-38
2024/02/06 07:02:23;;;;;;;18.95;4.55;;;;;;;;;;5055189;28;20394;-38
2024/02/06 07:04:50;;;;;;;15.27;4.30;;;;;;;;;;5072929;28;20498;-38
2024/02/06 07:07:18;;;;;;;17.35;4.97;;;;;;;;;;5072916;28;20029;-38
2024/02/06 07:09:45;;;;;;;16.13;4.45;;;;;;;;;;5073024;28;20021;-38
2024/02/06 07:12:12;;;;;;;15.68;4.50;;;;;;;;;;5073037;28;20048;-38
2024/02/06 07:14:38;;;;;;;20.90;5.10;;;;;;;;;;5072733;28;20125;-38
2024/02/06 07:17:05;;;;;;;16.55;4.60;;;;;;;;;;5072330;28;20062;-38
2024/02/06 07:19:33;;;;;;;15.13;4.05;;;;;;;;;;5072872;28;20455;-38
2024/02/06 07:22:00;;;;;;;21.63;4.95;;;;;;;;;;5072714;28;20033;-38
2024/02/06 07:24:27;;;;;;;15.35;4.57;;;;;;;;;;5072756;28;20097;-38
2024/02/06 07:26:54;;;;;;;16.55;4.63;;;;;;;;;;5072691;28;20101;-38
2024/02/06 07:29:22;;;;;;;19.95;5.25;;;;;;;;;;5072685;28;20394;-38
2024/02/06 07:31:49;;;;;;;15.85;4.65;;;;;;;;;;5072575;28;20025;-38
2024/02/06 07:34:18;;;;;;;17.42;4.47;;;;;;;;;;5072592;28;20032;-38
2024/02/06 07:36:46;;;;;;;15.98;4.40;;;;;;;;;;5072460;28;20037;-38
2024/02/06 07:39:13;;;;;;;16.50;4.80;;;;;;;;;;5072276;28;20138;-38
2024/02/06 07:41:40;;;;;;;18.52;4.70;;;;;;;;;;5072284;28;20475;-38
2024/02/06 07:44:07;;;;;;;17.00;4.50;;;;;;;;;;5072093;28;20036;-38
2024/02/06 07:46:34;;;;;;;16.38;4.60;;;;;;;;;;5072363;28;20524;-38
2024/02/06 07:49:01;;;;;;;16.80;4.43;;;;;;;;;;5072238;28;20032;-38
2024/02/06 07:51:28;;;;;;;15.07;4.47;;;;;;;;;;5072344;28;20066;-37
2024/02/06 07:53:56;;;;;;;15.52;4.93;;;;;;;;;;5054108;28;20407;-37
2024/02/06 07:56:23;;;;;;;16.52;4.93;;;;;;;;;;5072037;28;20487;-37
2024/02/06 07:58:50;;;;;;;13.35;4.18;;;;;;;;;;5072145;28;20024;-37
2024/02/06 08:01:17;;;;;;;19.20;4.85;;;;;;;;;;5072108;28;20477;-36
2024/02/06 08:03:44;;;;;;;16.60;4.85;;;;;;;;;;5071851;28;20029;-36
2024/02/06 08:06:11;;;;;;;19.85;5.18;;;;;;;;;;5071960;28;20050;-37
2024/02/06 08:08:38;;;;;;;18.02;4.80;;;;;;;;;;5072116;28;20470;-36
2024/02/06 08:11:05;;;;;;;16.42;4.93;;;;;;;;;;5071925;28;20031;-37
2024/02/06 08:13:32;;;;;;;16.08;4.68;;;;;;;;;;5071556;28;20064;-38
2024/02/06 08:15:59;;;;;;;19.52;5.20;;;;;;;;;;5071963;28;20033;-38
2024/02/06 08:18:26;;;;;;;21.17;4.75;;;;;;;;;;5071794;28;20024;-38
2024/02/06 08:20:53;;;;;;;18.98;4.63;;;;;;;;;;5071777;28;20101;-38
2024/02/06 08:23:22;;;;;;;20.48;5.00;;;;;;;;;;5071605;28;20042;-38
2024/02/06 08:25:49;;;;;;;19.70;4.65;;;;;;;;;;5071643;28;20538;-38
2024/02/06 08:28:15;;;;;;;15.98;4.80;;;;;;;;;;5057528;28;20067;-36
2024/02/06 08:30:47;;;;;;;15.88;4.97;;;;;;;;;;5051755;28;20029;-36
2024/02/06 08:33:15;;;;;;;17.85;4.78;;;;;;;;;;5051457;28;20399;-36
2024/02/06 08:35:42;;;;;;;14.95;4.80;;;;;;;;;;5051512;28;20067;-37
2024/02/06 08:38:09;;;;;;;15.50;4.57;;;;;;;;;;5051636;28;20101;-37
2024/02/06 08:40:36;;;;;;;15.43;4.88;;;;;;;;;;5051556;28;20029;-37
2024/02/06 08:43:04;;;;;;;12.80;4.75;;;;;;;;;;5051445;28;20029;-37
2024/02/06 08:45:31;;;;;;;12.25;4.47;;;;;;;;;;5051456;28;20037;-36
2024/02/06 08:47:58;;;;;;;18.95;5.20;;;;;;;;;;5051580;28;20025;-37
2024/02/06 08:50:25;;;;;;;19.50;4.75;;;;;;;;;;5051469;28;20029;-37
2024/02/06 08:52:52;;;;;;;24.35;5.80;;;;;;;;;;5051326;28;20028;-36
2024/02/06 08:55:19;;;;;;;18.23;5.28;;;;;;;;;;5051539;28;20506;-37
2024/02/06 08:57:46;;;;;;;14.57;4.88;;;;;;;;;;5051440;28;20032;-37
2024/02/06 09:00:15;;;;;;;17.08;5.38;;;;;;;;;;5051444;28;20032;-37
2024/02/06 09:02:43;;;;;;;19.00;5.22;;;;;;;;;;5051208;28;20119;-37
2024/02/06 09:05:10;;;;;;;14.45;4.97;;;;;;;;;;5051389;28;20106;-37
2024/02/06 09:07:37;;;;;;;22.35;5.15;;;;;;;;;;5051346;28;20025;-37
2024/02/06 09:10:05;;;;;;;14.65;5.00;;;;;;;;;;5051553;28;20036;-37
2024/02/06 09:12:32;;;;;;;15.57;5.43;;;;;;;;;;5050937;28;20037;-36
2024/02/06 09:15:00;;;;;;;16.73;5.20;;;;;;;;;;5070393;28;20069;-36
2024/02/06 09:17:28;;;;;;;15.15;4.65;;;;;;;;;;5071002;28;20032;-36
2024/02/06 09:19:55;;;;;;;20.20;4.75;;;;;;;;;;5071213;28;20086;-36
2024/02/06 09:22:22;;;;;;;22.38;5.38;;;;;;;;;;5070933;28;20033;-36
2024/02/06 09:24:49;;;;;;;18.55;5.22;;;;;;;;;;5070848;28;20127;-38
2024/02/06 09:27:17;;;;;;;20.17;5.07;;;;;;;;;;5071155;28;20023;-39
2024/02/06 09:29:43;;;;;;;21.23;5.32;;;;;;;;;;5070986;28;20044;-38
2024/02/06 09:32:10;;;;;;;16.58;5.50;;;;;;;;;;5070846;28;20387;-38
2024/02/06 09:34:37;;;;;;;20.55;5.78;;;;;;;;;;5071006;28;20021;-38
2024/02/06 09:37:04;;;;;;;24.40;6.30;;;;;;;;;;5071038;28;20585;-38
2024/02/06 09:39:31;;;;;;;29.50;7.10;;;;;;;;;;5073130;28;20031;-38
2024/02/06 09:42:01;;;;;;;64.22;10.35;;;;;;;;;;5074647;28;20028;-38
2024/02/06 09:44:31;;;;;;;70.07;11.38;;;;;;;;;;5074547;28;20045;-38
2024/02/06 09:46:59;;;;;;;75.20;11.45;;;;;;;;;;5074650;28;20401;-38
2024/02/06 09:49:26;;;;;;;64.95;9.93;;;;;;;;;;5074607;28;20021;-38
2024/02/06 09:51:54;;;;;;;64.60;11.15;;;;;;;;;;5074531;28;20029;-38
2024/02/06 09:54:23;;;;;;;48.72;8.70;;;;;;;;;;5074600;28;20490;-38
2024/02/06 09:56:50;;;;;;;64.10;9.50;;;;;;;;;;5074507;28;20465;-38
2024/02/06 09:59:18;;;;;;;56.00;8.70;;;;;;;;;;5074320;28;20036;-36
2024/02/06 10:01:46;;;;;;;48.97;7.72;;;;;;;;;;5074242;28;20033;-37
2024/02/06 10:04:16;;;;;;;47.17;8.25;;;;;;;;;;5074317;28;20033;-36
2024/02/06 10:06:46;;;;;;;51.13;8.25;;;;;;;;;;5056377;28;20079;-36
2024/02/06 10:09:13;;;;;;;36.47;7.20;;;;;;;;;;5074210;28;20040;-37
2024/02/06 10:11:41;;;;;;;37.15;7.55;;;;;;;;;;5074106;28;20036;-36
2024/02/06 10:14:08;;;;;;;44.35;7.60;;;;;;;;;;5073902;28;20055;-37
2024/02/06 10:16:35;;;;;;;42.63;7.90;;;;;;;;;;5074159;28;20031;-36
2024/02/06 10:19:02;;;;;;;36.33;7.22;;;;;;;;;;5073917;28;20036;-36
2024/02/06 10:21:32;;;;;;;41.38;7.50;;;;;;;;;;5073971;28;20025;-36
2024/02/06 10:24:19;;;;;;;31.38;6.72;;;;;;;;;;5060652;28;20390;-38
2024/02/06 10:26:58;;;;;;;33.40;6.55;;;;;;;;;;5053865;28;20040;-38
2024/02/06 10:29:25;;;;;;;31.48;6.43;;;;;;;;;;5053833;28;20029;-38
2024/02/06 10:32:00;;;;;;;27.13;7.32;;;;;;;;;;5053927;28;20104;-38
2024/02/06 10:34:28;;;;;;;30.25;6.88;;;;;;;;;;5053799;28;20499;-38
2024/02/06 10:37:01;;;;;;;27.23;6.93;;;;;;;;;;5053779;28;20091;-38
2024/02/06 10:39:28;;;;;;;29.45;7.53;;;;;;;;;;5053739;28;20033;-38
2024/02/06 10:42:02;;;;;;;33.78;6.50;;;;;;;;;;5053579;28;20141;-38
2024/02/06 10:44:29;;;;;;;27.15;6.68;;;;;;;;;;5053518;28;20760;-38
2024/02/06 10:46:59;;;;;;;30.20;7.70;;;;;;;;;;5053461;28;20056;-42
2024/02/06 10:49:27;;;;;;;25.20;7.38;;;;;;;;;;5053568;28;20060;-38
2024/02/06 10:52:04;;;;;;;24.73;6.38;;;;;;;;;;5052610;28;20104;-38
2024/02/06 10:54:31;;;;;;;26.10;7.22;;;;;;;;;;5053344;28;20037;-38
2024/02/06 10:57:06;;;;;;;27.23;6.93;;;;;;;;;;5053365;28;20032;-38
2024/02/06 10:59:48;;;;;;;28.42;7.03;;;;;;;;;;5053217;28;20037;-38
2024/02/06 11:02:21;;;;;;;27.33;7.43;;;;;;;;;;5053236;28;20025;-38
2024/02/06 11:04:49;;;;;;;20.55;6.65;;;;;;;;;;5053196;28;20035;-38
2024/02/06 11:07:17;;;;;;;20.30;7.53;;;;;;;;;;5053053;28;20028;-38
2024/02/06 11:09:45;;;;;;;25.30;7.63;;;;;;;;;;5052827;28;20040;-38
2024/02/06 11:12:12;;;;;;;20.20;6.63;;;;;;;;;;5055950;28;20693;-36
2024/02/06 11:14:40;;;;;;;19.02;6.68;;;;;;;;;;5070422;28;20051;-37
2024/02/06 11:17:10;;;;;;;24.73;7.40;;;;;;;;;;5067325;28;20383;-36
2024/02/06 11:19:56;;;;;;;26.50;7.60;;;;;;;;;;5037426;28;20040;-36
2024/02/06 11:22:51;;;;;;;29.45;6.82;;;;;;;;;;5052610;28;20031;-36
2024/02/06 11:25:19;;;;;;;25.65;6.82;;;;;;;;;;5049863;28;20045;-36
2024/02/06 11:27:47;;;;;;;29.23;7.25;;;;;;;;;;5056370;28;20473;-41
2024/02/06 11:30:17;;;;;;;29.00;7.38;;;;;;;;;;5063242;28;20028;-37
2024/02/06 11:32:44;;;;;;;28.05;7.53;;;;;;;;;;5061238;28;20064;-37
2024/02/06 11:35:11;;;;;;;28.63;8.27;;;;;;;;;;5061790;28;20082;-36
2024/02/06 11:37:37;;;;;;;27.65;8.05;;;;;;;;;;5062243;28;20024;-37
2024/02/06 11:40:11;;;;;;;28.13;7.82;;;;;;;;;;5062256;28;20025;-36
2024/02/06 11:42:39;;;;;;;24.05;7.80;;;;;;;;;;5061160;28;20025;-36
2024/02/06 11:45:08;;;;;;;25.08;8.00;;;;;;;;;;5066390;28;20055;-36
2024/02/06 11:47:35;;;;;;;27.55;7.28;;;;;;;;;;5064667;28;20079;-38
2024/02/06 11:50:08;;;;;;;31.63;7.45;;;;;;;;;;5061163;28;20033;-36
2024/02/06 11:52:35;;;;;;;23.30;7.28;;;;;;;;;;5057188;28;20450;-37
2024/02/06 11:55:04;;;;;;;24.20;6.95;;;;;;;;;;5063246;28;20029;-38
2024/02/06 11:57:31;;;;;;;39.95;9.00;;;;;;;;;;5060208;28;20486;-36
2024/02/06 12:00:02;;;;;;;37.42;8.05;;;;;;;;;;5061645;28;20174;-37
2024/02/06 12:02:29;;;;;;;35.33;8.07;;;;;;;;;;5056426;28;20036;-36
2024/02/06 12:05:06;;;;;;;32.47;7.82;;;;;;;;;;5051722;28;20033;-37
2024/02/06 12:07:33;;;;;;;33.15;8.65;;;;;;;;;;5051830;28;20025;-36
2024/02/06 12:10:00;;;;;;;34.88;7.78;;;;;;;;;;5051897;28;20033;-36
2024/02/06 12:12:27;;;;;;;23.58;6.85;;;;;;;;;;5051806;28;20027;-36
2024/02/06 12:14:54;;;;;;;29.60;7.80;;;;;;;;;;5051688;28;20052;-36
2024/02/06 12:17:21;;;;;;;24.92;7.88;;;;;;;;;;5051779;28;20036;-36
2024/02/06 12:19:50;;;;;;;26.30;7.55;;;;;;;;;;5051820;28;20839;-36
2024/02/06 12:22:18;;;;;;;21.52;7.35;;;;;;;;;;5051491;28;20025;-36
2024/02/06 12:24:45;;;;;;;19.35;7.43;;;;;;;;;;5051725;28;20029;-36
2024/02/06 12:27:12;;;;;;;24.35;7.82;;;;;;;;;;5051723;28;20029;-37
2024/02/06 12:29:40;;;;;;;26.05;7.97;;;;;;;;;;5051633;28;20052;-36
2024/02/06 12:32:08;;;;;;;26.15;7.00;;;;;;;;;;5051370;28;20390;-37
2024/02/06 12:34:35;;;;;;;22.77;7.32;;;;;;;;;;5051371;28;20489;-36
2024/02/06 12:37:05;;;;;;;19.88;6.97;;;;;;;;;;5051523;28;20017;-36
2024/02/06 12:39:32;;;;;;;24.27;7.30;;;;;;;;;;5054022;28;20025;-36
2024/02/06 12:42:05;;;;;;;24.42;6.95;;;;;;;;;;5054026;28;20406;-36
2024/02/06 12:44:32;;;;;;;21.77;7.40;;;;;;;;;;5051344;28;20055;-36
2024/02/06 12:47:03;;;;;;;21.33;7.25;;;;;;;;;;5060248;28;20033;-35
2024/02/06 12:49:30;;;;;;;21.83;7.38;;;;;;;;;;5058817;28;20035;-34
2024/02/06 12:51:58;;;;;;;34.17;7.43;;;;;;;;;;5060804;28;20078;-35
2024/02/06 12:54:25;;;;;;;52.85;9.10;;;;;;;;;;5060963;28;20056;-35
2024/02/06 12:56:56;;;;;;;39.80;7.72;;;;;;;;;;5059872;28;20078;-35
2024/02/06 12:59:23;;;;;;;27.42;7.57;;;;;;;;;;5057355;28;20427;-34
2024/02/06 13:01:51;;;;;;;33.13;7.32;;;;;;;;;;5058082;28;20471;-34
2024/02/06 13:04:27;;;;;;;34.13;7.47;;;;;;;;;;5063426;28;20537;-35
2024/02/06 13:06:54;;;;;;;28.70;7.57;;;;;;;;;;5063542;28;20397;-34
2024/02/06 13:09:30;;;;;;;22.48;7.25;;;;;;;;;;5051506;28;20059;-34
2024/02/06 13:11:57;;;;;;;23.55;6.97;;;;;;;;;;5050664;28;20111;-33
2024/02/06 13:14:25;;;;;;;19.70;6.60;;;;;;;;;;5067309;28;20080;-35
2024/02/06 13:16:52;;;;;;;25.00;7.07;;;;;;;;;;5068134;28;20033;-34
2024/02/06 13:19:28;;;;;;;29.20;6.82;;;;;;;;;;5061438;28;20025;-34
2024/02/06 13:21:55;;;;;;;27.45;7.13;;;;;;;;;;5074696;28;20533;-34
2024/02/06 13:24:23;;;;;;;24.63;6.85;;;;;;;;;;5062979;28;20418;-35
2024/02/06 13:26:52;;;;;;;22.55;7.13;;;;;;;;;;5054815;28;20482;-34
2024/02/06 13:29:19;;;;;;;25.63;7.32;;;;;;;;;;5061603;28;20385;-33
2024/02/06 13:31:46;;;;;;;25.27;6.88;;;;;;;;;;5066112;28;20119;-35
2024/02/06 13:34:13;;;;;;;28.13;6.75;;;;;;;;;;5060183;28;20036;-33
2024/02/06 13:36:40;;;;;;;20.40;6.70;;;;;;;;;;5069022;28;20028;-33
2024/02/06 13:39:10;;;;;;;30.90;7.25;;;;;;;;;;5072499;28;20033;-35
2024/02/06 13:41:41;;;;;;;21.95;6.60;;;;;;;;;;5059493;28;20028;-33
2024/02/06 13:44:08;;;;;;;27.42;6.65;;;;;;;;;;5066870;28;20072;-35
2024/02/06 13:46:35;;;;;;;25.48;7.20;;;;;;;;;;5069131;28;20030;-34
2024/02/06 13:49:02;;;;;;;21.35;6.70;;;;;;;;;;5073841;28;20059;-35
2024/02/06 13:51:29;;;;;;;21.63;6.88;;;;;;;;;;5074062;28;20039;-33
2024/02/06 13:53:57;;;;;;;20.25;7.00;;;;;;;;;;5066077;28;20078;-33
2024/02/06 13:56:24;;;;;;;19.75;6.45;;;;;;;;;;5070022;28;20028;-32
2024/02/06 13:58:51;;;;;;;20.38;6.63;;;;;;;;;;5074280;28;20043;-35
2024/02/06 14:01:20;;;;;;;24.42;7.28;;;;;;;;;;5073895;28;20031;-35
2024/02/06 14:03:48;;;;;;;16.67;6.63;;;;;;;;;;5067554;28;20466;-33
2024/02/06 14:06:15;;;;;;;23.73;6.88;;;;;;;;;;5062179;28;20033;-34
2024/02/06 14:08:42;;;;;;;31.83;7.43;;;;;;;;;;5062165;28;20063;-32
2024/02/06 14:11:09;;;;;;;24.98;6.93;;;;;;;;;;5055087;28;20083;-34
2024/02/06 14:13:36;;;;;;;32.13;7.18;;;;;;;;;;5053545;28;20094;-33
2024/02/06 14:16:03;;;;;;;22.15;7.00;;;;;;;;;;5064898;28;20063;-33
2024/02/06 14:18:30;;;;;;;22.55;6.93;;;;;;;;;;5069145;28;20048;-33
2024/02/06 14:20:58;;;;;;;28.63;6.63;;;;;;;;;;5072997;28;20029;-33
2024/02/06 14:23:25;;;;;;;21.00;6.90;;;;;;;;;;5056255;28;20105;-33
2024/02/06 14:25:52;;;;;;;24.45;6.75;;;;;;;;;;5053826;28;20402;-33
2024/02/06 14:28:19;;;;;;;17.70;6.60;;;;;;;;;;5056423;28;20497;-33
2024/02/06 14:30:46;;;;;;;23.85;6.97;;;;;;;;;;5053509;28;20104;-33
2024/02/06 14:33:13;;;;;;;23.08;7.80;;;;;;;;;;5056992;28;20028;-33